Terminal Aerodrome Forecast
Issued by NWS Sterling, VA

Current Version | Previous Version | Graphics & Text | Print | Product List | Glossary On
Versions: 1 2 3 4 5 6 7 8 9 10 11 12 13 14 15 16
000
FTUS41 KLWX 021120
TAFMRB
TAF
KMRB 021120Z 0212/0312 VRB03KT 3SM BR FEW070 SCT250
     FM021300 VRB03KT P6SM SCT070 BKN250
     FM021900 32005KT P6SM VCTS BKN060CB BKN080
     FM030000 28005KT P6SM BKN060 BKN080
     FM030300 27005KT P6SM FEW080 SCT250
     FM030700 30004KT 5SM BR FEW080 SCT250=

USA.gov is the U.S. government's official web portal to all federal, state and local government web resources and services.